Terminal Aerodrome Forecast
Issued by NWS Sterling, VA

Current Version | Previous Version | Graphics & Text | Print | Product List | Glossary On
Versions: 1 2 3 4 5 6 7 8 9 10 11 12 13 14 15 16 17 18 19 20 21
065
FTUS41 KLWX 311134
TAFMRB
TAF
KMRB 311134Z 3112/0112 35004KT 2SM BR FEW150 FEW250
      TEMPO 3112/3114 1/4SM FG VV002
     FM311400 01005KT P6SM SKC
     FM010600 VRB03KT 3SM BR FEW070 SCT250
     FM010800 36004KT 2SM BR FEW070 SCT250=

USA.gov is the U.S. government's official web portal to all federal, state and local government web resources and services.